Flight Track Log - Related Links

Times and Time Zones

All times are in EDT time to prevent confusion due to time zone crossing. See the N596SR flight status page for this flight to view local times or setup timezone preferences in your user account.

Time Position Orientation Groundspeed Altitude Reporting Facility
EDT Latitude Longitude Course Direction KTS MPH feet Rate Location/Type
Wed 08:49:36 AM 30.3511 -81.5253 North 105 121 400  Level Jacksonville Center
Wed 08:50:43 AM 30.3867 -81.5247 North 111 128 1,300 797 Climbing Jacksonville Center
Wed 08:51:44 AM 30.4178 -81.5219 North 119 137 2,100 787 Climbing Jacksonville Center
Wed 08:52:45 AM 30.4533 -81.5189 North 123 142 2,900 776 Climbing Jacksonville Center
Wed 08:53:40 AM 30.4847 -81.5186 360° North 126 145 3,600 776 Climbing Jacksonville Center
Wed 08:54:41 AM 30.5200 -81.5181 North 128 147 4,400 787 Climbing Jacksonville Center
Wed 08:55:42 AM 30.5575 -81.5128 North 132 152 5,200 738 Climbing Jacksonville Center
Wed 08:56:43 AM 30.5972 -81.5072 North 138 159 5,900 689 Climbing Jacksonville Center
Wed 08:57:44 AM 30.6328 -81.5189 344° North 144 166 6,600 689 Climbing Jacksonville Center
Wed 08:58:45 AM 30.6686 -81.5378 336° Northwest 134 154 7,300 724 Climbing Jacksonville Center
Wed 08:59:40 AM 30.7000 -81.5589 330° Northwest 139 160 8,000 672 Climbing Jacksonville Center
Wed 09:00:41 AM 30.7358 -81.5753 339° North 139 160 8,600 508 Climbing Jacksonville Center
Wed 09:01:38 AM 30.7778 -81.5967 336° Northwest 147 169 9,000 207 Climbing Jacksonville Center
Wed 09:02:37 AM 30.8133 -81.6153 336° Northwest 168 193 9,000  Level Jacksonville Center
Wed 09:03:38 AM 30.8575 -81.6439 331° Northwest 168 193 9,000  Level Jacksonville Center
Wed 09:04:38 AM 30.9014 -81.6531 350° North 181 208 9,000 -50 Level Jacksonville Center
Wed 09:05:38 AM 30.9475 -81.6692 343° North 175 201 8,900 -50 Descending Jacksonville Center
Wed 09:06:38 AM 30.9917 -81.6856 342° North 170 196 8,900 50 Level Jacksonville Center
Wed 09:07:38 AM 31.0356 -81.7044 340° North 170 196 9,000 50 Climbing Jacksonville Center
Wed 09:08:38 AM 31.0797 -81.7211 342° North 170 196 9,000  Level Jacksonville Center
Wed 09:09:38 AM 31.1050 -81.7619 306° West 151 174 9,000 -50 Level Jacksonville Center
Wed 09:10:38 AM 31.1325 -81.8003 310° West 151 174 8,900  Descending Jacksonville Center
Wed 09:11:38 AM 31.1600 -81.8414 308° West 156 180 9,000 50 Climbing Jacksonville Center
Wed 09:12:38 AM 31.1853 -81.8750 311° West 156 180 9,000 -50 Level Jacksonville Center
Wed 09:13:38 AM 31.2169 -81.9183 311° West 161 185 8,900  Descending Jacksonville Center
Wed 09:14:38 AM 31.2464 -81.9594 310° West 161 185 9,000  Climbing Jacksonville Center
Wed 09:15:38 AM 31.2761 -81.9981 312° West 161 185 8,900  Descending Jacksonville Center
Wed 09:16:38 AM 31.3014 -82.0439 303° West 161 185 9,000 50 Climbing Jacksonville Center
Wed 09:17:38 AM 31.3308 -82.0803 313° West 161 185 9,000 -200 Level Jacksonville Center
Wed 09:18:38 AM 31.3686 -82.1092 327° Northwest 161 185 8,600 -450 Descending Jacksonville Center
Wed 09:19:38 AM 31.4189 -82.1183 351° North 167 192 8,100 -300 Descending Jacksonville Center
Wed 09:20:38 AM 31.4689 -82.1303 348° North 181 208 8,000 -50 Descending Jacksonville Center
Wed 09:21:38 AM 31.5108 -82.1397 349° North 181 208 8,000  Level Jacksonville Center
Wed 09:22:38 AM 31.5567 -82.1489 350° North 176 203 8,000  Level Jacksonville Center
Wed 09:23:38 AM 31.6092 -82.1583 351° North 176 203 8,000  Level Jacksonville Center
Wed 09:24:38 AM 31.6572 -82.1700 348° North 176 203 8,000  Level Jacksonville Center
Wed 09:25:38 AM 31.7031 -82.1794 350° North 171 197 8,000  Level Jacksonville Center
Wed 09:26:38 AM 31.7450 -82.1889 349° North 165 190 8,000 -50 Level Jacksonville Center
Wed 09:27:38 AM 31.7931 -82.2008 348° North 165 190 7,900  Descending Jacksonville Center
Wed 09:28:38 AM 31.8431 -82.2128 349° North 165 190 8,000 50 Climbing Jacksonville Center
Wed 09:29:38 AM 31.8892 -82.2197 353° North 165 190 8,000  Level Jacksonville Center
Wed 09:30:38 AM 31.9372 -82.2317 348° North 165 190 8,000  Level Jacksonville Center
Wed 09:31:38 AM 31.9792 -82.2411 349° North 165 190 8,000  Level Jacksonville Center
Wed 09:32:38 AM 32.0314 -82.2531 349° North 165 190 8,000  Level Jacksonville Center
Wed 09:33:38 AM 32.0772 -82.2625 350° North 165 190 8,000  Level Jacksonville Center
Wed 09:34:38 AM 32.1253 -82.2719 351° North 165 190 8,000  Level Jacksonville Center
Wed 09:35:38 AM 32.1506 -82.3086 309° West 151 174 8,000 -100 Level Jacksonville Center
Wed 09:36:38 AM 32.1819 -82.3478 313° West 151 174 7,800 -50 Descending Jacksonville Center
Wed 09:37:38 AM 32.2094 -82.3867 310° West 158 182 7,900 50 Climbing Jacksonville Center
Wed 09:38:38 AM 32.2408 -82.4258 313° West 158 182 7,900  Level Jacksonville Center
Wed 09:39:38 AM 32.2722 -82.4650 313° West 158 182 7,900 -50 Level Jacksonville Center
Wed 09:40:38 AM 32.3017 -82.5042 312° West 158 182 7,800  Descending Jacksonville Center
Wed 09:43:06 AM 32.3833 -82.6000 315° West 158 182 7,900 29 Climbing Atlanta TRACON
Wed 09:44:06 AM 32.4167 -82.6333 320° Northwest 160 184 7,900  Level Atlanta TRACON
Wed 09:45:06 AM 32.4333 -82.6833 292° West 164 189 7,900 -50 Level Atlanta TRACON
Wed 09:46:06 AM 32.4667 -82.7167 320° Northwest 165 190 7,800  Descending Atlanta TRACON
Wed 09:47:06 AM 32.5000 -82.7500 320° Northwest 163 188 7,900 50 Climbing Atlanta TRACON
Wed 09:48:06 AM 32.5333 -82.8000 308° West 165 190 7,900  Level Atlanta TRACON
Wed 09:49:01 AM 32.5500 -82.8167 320° Northwest 160 184 7,900  Level Atlanta TRACON
Wed 09:50:01 AM 32.6000 -82.8500 331° Northwest 170 196 7,900  Level Atlanta TRACON
Wed 09:51:01 AM 32.6333 -82.8500 360° North 167 192 7,900  Level Atlanta TRACON
Wed 09:52:07 AM 32.7000 -82.8833 337° Northwest 166 191 7,900  Level Atlanta TRACON
Wed 09:53:07 AM 32.7333 -82.9000 337° Northwest 165 190 7,900  Level Atlanta TRACON
Wed 09:54:07 AM 32.7833 -82.9000 360° North 163 188 7,900  Level Atlanta TRACON
Wed 09:55:07 AM 32.8167 -82.9333 320° Northwest 163 188 7,900  Level Atlanta TRACON
Wed 09:56:07 AM 32.8667 -82.9333 360° North 164 189 7,900 -50 Level Atlanta TRACON
Wed 09:57:07 AM 32.9167 -82.9500 344° North 165 190 7,800 -250 Descending Atlanta TRACON
Wed 09:58:07 AM 32.9500 -82.9667 337° Northwest 169 194 7,400 -64 Descending Atlanta TRACON
Wed 10:00:00 AM 33.0307 -82.9909 346° North  Level FlightAware Approximate
Wed 10:07:00 AM 33.3343 -82.9732 North  Level FlightAware Approximate
Wed 10:08:00 AM 33.3780 -82.9649 North  Level FlightAware Approximate
Wed 10:09:00 AM 33.4218 -82.9578 North  Level FlightAware Approximate
Wed 10:10:00 AM 33.4656 -82.9508 North  Level FlightAware Approximate
Wed 10:11:00 AM 33.5093 -82.9437 North  Level FlightAware Approximate
Wed 10:11:07 AM 33.5667 -82.9333 North 173 199 6,900  Level Atlanta TRACON
Wed 10:12:00 AM 33.5531 -82.9367 North  Level FlightAware Approximate
Wed 10:12:07 AM 33.6167 -82.9167 16° North 172 198 6,900  Level Atlanta TRACON
Wed 10:13:00 AM 33.5969 -82.9296 North  Level FlightAware Approximate
Wed 10:13:13 AM 33.6667 -82.9167 360° North 167 192 6,900  Level Atlanta TRACON
Wed 10:13:46 AM 33.6783 -82.9131 14° North 172 198 6,900  Level Atlanta Center
Wed 10:14:00 AM 33.6407 -82.9226 North  Level FlightAware Approximate
Wed 10:14:45 AM 33.7264 -82.9047 North 172 198 6,900  Level Atlanta Center
Wed 10:15:00 AM 33.6845 -82.9155 North  Level FlightAware Approximate
Wed 10:15:46 AM 33.7722 -82.8967 North 172 198 6,900  Level Atlanta Center
Wed 10:16:00 AM 33.7283 -82.9084 North  Level FlightAware Approximate
Wed 10:16:46 AM 33.8203 -82.8886 North 172 198 6,900  Level Atlanta Center
Wed 10:17:46 AM 33.8661 -82.8806 North 172 198 6,900  Level Atlanta Center
Wed 10:18:46 AM 33.9139 -82.8722 North 167 192 6,900  Level Atlanta Center
Wed 10:19:46 AM 33.9619 -82.8667 North 167 192 6,900  Level Atlanta Center
Wed 10:20:46 AM 34.0078 -82.8586 North 167 192 6,900  Level Atlanta Center
Wed 10:21:45 AM 34.0556 -82.8503 North 161 185 6,900  Level Atlanta Center
Wed 10:22:46 AM 34.1036 -82.8422 North 161 185 6,900  Level Atlanta Center
Wed 10:23:46 AM 34.1453 -82.8339 North 182 209 6,900  Level Atlanta Center
Wed 10:24:46 AM 34.1953 -82.8233 10° North 172 198 6,900  Level Atlanta Center
Wed 10:25:45 AM 34.2431 -82.8175 North 180 207 6,900  Level Atlanta Center
Wed 10:26:46 AM 34.2911 -82.8092 North 180 207 6,900  Level Atlanta Center
Wed 10:27:46 AM 34.3328 -82.8011 North 167 192 6,900  Level Atlanta Center
Wed 10:28:46 AM 34.3828 -82.7928 North 166 191 6,900  Level Atlanta Center
Wed 10:29:46 AM 34.4264 -82.7872 North 208 239 6,900 100 Level Atlanta Center
Wed 10:30:46 AM 34.4664 -82.8017 343° North 176 203 7,100 250 Climbing Atlanta Center
Wed 10:31:46 AM 34.5103 -82.8136 347° North 149 171 7,400 200 Climbing Atlanta Center
Wed 10:32:46 AM 34.5522 -82.8256 347° North 149 171 7,500 150 Climbing Atlanta Center
Wed 10:33:46 AM 34.5919 -82.8378 346° North 149 171 7,700 202 Climbing Atlanta Center
Wed 10:34:45 AM 34.6336 -82.8497 347° North 149 171 7,900 100 Climbing Atlanta Center
Wed 10:35:46 AM 34.6756 -82.8669 341° North 149 171 7,900  Level Atlanta Center
Wed 10:36:45 AM 34.7194 -82.8739 353° North 149 171 7,900  Level Atlanta Center
Wed 10:37:46 AM 34.7656 -82.8883 346° North 154 177 7,900  Level Atlanta Center
Wed 10:38:46 AM 34.8094 -82.9028 345° North 159 183 7,900  Level Atlanta Center
Wed 10:39:46 AM 34.8556 -82.9150 348° North 164 189 7,900  Level Atlanta Center
Wed 10:40:45 AM 34.8975 -82.9269 347° North 164 189 7,900 100 Level Atlanta Center
Wed 10:41:46 AM 34.9414 -82.9467 340° North 164 189 8,100 600 Climbing Atlanta Center
Wed 10:42:45 AM 34.9811 -82.9539 352° North 159 183 9,100 908 Climbing Atlanta Center
Wed 10:43:45 AM 35.0189 -82.9633 348° North 149 171 9,900 400 Climbing Atlanta Center
Wed 10:44:45 AM 35.0606 -82.9731 349° North 143 165 9,900  Level Atlanta Center
Wed 10:45:45 AM 35.1044 -82.9878 345° North 149 171 9,900  Level Atlanta Center
Wed 10:46:45 AM 35.1464 -83.0025 344° North 149 171 9,900  Level Atlanta Center
Wed 10:47:45 AM 35.1883 -83.0147 347° North 154 177 9,900  Level Atlanta Center
Wed 10:48:45 AM 35.2300 -83.0242 350° North 160 184 9,900  Level Atlanta Center
Wed 10:49:45 AM 35.2719 -83.0364 347° North 155 178 9,900  Level Atlanta Center
Wed 10:50:45 AM 35.3117 -83.0511 343° North 150 173 9,900  Level Atlanta Center
Wed 10:51:45 AM 35.3514 -83.0608 349° North 150 173 9,900  Level Atlanta Center
Wed 10:52:45 AM 35.3911 -83.0731 346° North 150 173 9,900  Level Atlanta Center
Wed 10:53:45 AM 35.4350 -83.0856 347° North 150 173 9,900  Level Atlanta Center
Wed 10:54:45 AM 35.4728 -83.0978 345° North 150 173 9,900  Level Atlanta Center
Wed 10:55:45 AM 35.5144 -83.1075 349° North 145 167 9,900  Level Atlanta Center
Wed 10:56:45 AM 35.5542 -83.1197 346° North 145 167 9,900  Level Atlanta Center
Wed 10:57:45 AM 35.5981 -83.1347 344° North 150 173 9,900  Level Atlanta Center
Wed 10:58:45 AM 35.6400 -83.1444 349° North 150 173 9,900  Level Atlanta Center
Wed 10:59:45 AM 35.6817 -83.1592 344° North 155 178 9,900 -150 Level Atlanta Center
Wed 11:00:45 AM 35.7256 -83.1717 347° North 155 178 9,600 -300 Descending Atlanta Center
Wed 11:01:45 AM 35.7694 -83.1864 345° North 160 184 9,300 -400 Descending Atlanta Center
Wed 11:02:45 AM 35.8156 -83.2014 345° North 165 190 8,800 -500 Descending Atlanta Center
Wed 11:03:45 AM 35.8636 -83.2136 348° North 165 190 8,300 -450 Descending Atlanta Center
Wed 11:04:45 AM 35.9056 -83.2311 341° North 165 190 7,900 -200 Descending Atlanta Center
Wed 11:05:45 AM 35.9494 -83.2436 347° North 165 190 7,900  Level Atlanta Center
Wed 11:06:45 AM 35.9994 -83.2558 349° North 165 190 7,900  Level Atlanta Center
Wed 11:08:36 AM 36.0781 -83.2783 347° North 161 185 7,900  Level Indianapolis Center
Wed 11:09:38 AM 36.1222 -83.2908 347° North 162 186 7,900  Level Indianapolis Center
Wed 11:10:21 AM 36.1519 -83.3033 341° North 163 188 7,900  Level Atlanta Center
Wed 11:11:21 AM 36.1939 -83.3158 346° North 163 188 7,900  Level Atlanta Center
Wed 11:12:21 AM 36.2378 -83.3283 347° North 163 188 7,900  Level Atlanta Center
Wed 11:13:21 AM 36.2794 -83.3408 346° North 163 188 7,900  Level Atlanta Center
Wed 11:14:21 AM 36.3233 -83.3533 347° North 163 188 7,900  Level Atlanta Center
Wed 11:15:21 AM 36.3631 -83.3658 346° North 163 188 7,900  Level Atlanta Center
Wed 11:16:21 AM 36.4069 -83.3783 347° North 163 188 7,900  Level Atlanta Center
Wed 11:16:50 AM 36.4289 -83.3853 346° North 157 181 7,900  Level Indianapolis Center
Wed 11:17:51 AM 36.4725 -83.3972 348° North 159 183 7,900  Level Indianapolis Center
Wed 11:18:53 AM 36.5142 -83.4106 346° North 155 178 7,900  Level Indianapolis Center
Wed 11:19:55 AM 36.5561 -83.4225 347° North 154 177 7,900  Level Indianapolis Center
Wed 11:20:56 AM 36.6058 -83.4381 346° North 155 178 7,900  Level Indianapolis Center
Wed 11:21:58 AM 36.6469 -83.4517 345° North 154 177 7,900  Level Indianapolis Center
Wed 11:23:00 AM 36.6883 -83.4631 348° North 152 175 7,900  Level Indianapolis Center
Wed 11:24:02 AM 36.7300 -83.4764 346° North 153 176 7,900  Level Indianapolis Center
Wed 11:25:03 AM 36.7711 -83.4889 346° North 152 175 7,900  Level Indianapolis Center
Wed 11:26:05 AM 36.8125 -83.5056 342° North 154 177 7,900  Level Indianapolis Center
Wed 11:27:07 AM 36.8525 -83.5242 340° North 153 176 7,900  Level Indianapolis Center
Wed 11:28:09 AM 36.9003 -83.5444 341° North 154 177 7,900  Level Indianapolis Center
Wed 11:30:12 AM 36.9806 -83.5792 341° North 153 176 7,900  Level Indianapolis Center
Wed 11:31:14 AM 37.0225 -83.5975 341° North 157 181 7,900  Level Indianapolis Center
Wed 11:32:16 AM 37.0642 -83.6147 342° North 157 181 7,900  Level Indianapolis Center
Wed 11:33:18 AM 37.1047 -83.6317 342° North 154 177 7,900  Level Indianapolis Center
Wed 11:34:20 AM 37.1472 -83.6511 340° North 159 183 7,900  Level Indianapolis Center
Wed 11:35:21 AM 37.1950 -83.6717 341° North 157 181 7,900  Level Indianapolis Center
Wed 11:36:23 AM 37.2364 -83.6892 341° North 156 180 7,900  Level Indianapolis Center
Wed 11:37:25 AM 37.2772 -83.7067 341° North 156 180 7,900  Level Indianapolis Center
Wed 11:38:27 AM 37.3186 -83.7244 341° North 155 178 7,900  Level Indianapolis Center
Wed 11:39:29 AM 37.3589 -83.7422 341° North 154 177 7,900  Level Indianapolis Center
Wed 11:40:30 AM 37.4003 -83.7608 340° North 156 180 7,900  Level Indianapolis Center
Wed 11:41:32 AM 37.4494 -83.7811 342° North 158 182 7,900  Level Indianapolis Center
Wed 11:42:34 AM 37.4917 -83.8003 340° North 160 184 7,900  Level Indianapolis Center
Wed 11:43:36 AM 37.5336 -83.8183 341° North 160 184 7,900  Level Indianapolis Center
Wed 11:44:38 AM 37.5764 -83.8372 341° North 160 184 7,900  Level Indianapolis Center
Wed 11:45:39 AM 37.6183 -83.8553 341° North 160 184 7,900  Level Indianapolis Center
Wed 11:46:41 AM 37.6600 -83.8733 341° North 158 182 7,900  Level Indianapolis Center
Wed 11:47:43 AM 37.7008 -83.8911 341° North 156 180 7,900  Level Indianapolis Center
Wed 11:48:45 AM 37.7483 -83.9128 340° North 156 180 7,900  Level Indianapolis Center
Wed 11:49:46 AM 37.7894 -83.9300 342° North 156 180 7,900  Level Indianapolis Center
Wed 11:50:48 AM 37.8300 -83.9478 341° North 154 177 7,900  Level Indianapolis Center
Wed 11:51:50 AM 37.8706 -83.9644 342° North 153 176 7,900 -244 Level Indianapolis Center
Wed 11:52:51 AM 37.9131 -83.9853 339° North 160 184 7,400 -488 Descending Indianapolis Center
Wed 11:53:53 AM 37.9583 -84.0047 341° North 168 193 6,900 -484 Descending Indianapolis Center
Wed 11:54:55 AM 38.0036 -84.0239 342° North 171 197 6,400 -484 Descending Indianapolis Center
Wed 11:55:57 AM 38.0561 -84.0464 341° North 171 197 5,900 -244 Descending Indianapolis Center
Wed 11:56:58 AM 38.0983 -84.0644 341° North 165 190 5,900  Level Indianapolis Center
Wed 11:58:00 AM 38.1383 -84.0825 340° North 158 182 5,900 48 Level Indianapolis Center
Wed 11:59:02 AM 38.1778 -84.0997 341° North 154 177 6,000  Climbing Indianapolis Center
Wed 12:00:03 PM 38.2181 -84.1178 341° North 152 175 5,900 -49 Descending Indianapolis Center
Wed 12:01:05 PM 38.2575 -84.1364 340° North 152 175 5,900  Level Indianapolis Center
Wed 12:02:07 PM 38.2972 -84.1533 341° North 151 174 5,900  Level Indianapolis Center
Wed 12:03:09 PM 38.3439 -84.1747 340° North 152 175 5,900  Level Indianapolis Center
Wed 12:04:10 PM 38.3831 -84.1917 341° North 150 173 5,900 49 Level Indianapolis Center
Wed 12:05:12 PM 38.4225 -84.2089 341° North 149 171 6,000 48 Climbing Indianapolis Center
Wed 12:06:14 PM 38.4608 -84.2269 340° North 148 170 6,000  Level Indianapolis Center
Wed 12:07:15 PM 38.5011 -84.2444 341° North 150 173 6,000  Level Indianapolis Center
Wed 12:08:17 PM 38.5403 -84.2617 341° North 150 173 6,000 -48 Level Indianapolis Center
Wed 12:09:19 PM 38.5869 -84.2822 341° North 150 173 5,900 -49 Descending Indianapolis Center
Wed 12:10:20 PM 38.6258 -84.2997 341° North 149 171 5,900 -195 Level Indianapolis Center
Wed 12:11:22 PM 38.6628 -84.3322 326° Northwest 154 177 5,500 -435 Descending Indianapolis Center
Wed 12:12:24 PM 38.7008 -84.3644 327° Northwest 164 189 5,000 -488 Descending Indianapolis Center
Wed 12:13:25 PM 38.7397 -84.3975 326° Northwest 165 190 4,500 -341 Descending Indianapolis Center
Wed 12:14:27 PM 38.7825 -84.4328 327° Northwest 166 191 4,300 -270 Descending Indianapolis Center
Wed 12:16:23 PM 38.8667 -84.4833 335° Northwest 154 177 3,700 -429 Descending Cincinnati TRACON
Wed 12:17:29 PM 38.9000 -84.4833 360° North 167 192 3,000 -667 Descending Cincinnati TRACON
Wed 12:18:29 PM 38.9500 -84.4833 360° North 154 177 2,300 -500 Descending Cincinnati TRACON
Wed 12:19:29 PM 38.9833 -84.4667 21° North 123 142 2,000 -190 Descending Cincinnati TRACON
Wed 12:20:35 PM 39.0167 -84.4500 21° North 112 129 1,900 -271 Descending Cincinnati TRACON
Wed 12:21:42 PM 39.0500 -84.4333 21° North 115 132 1,400 -448 Descending Cincinnati TRACON
Wed 12:23:00 PM 39.1000 -84.4167 349° North  Level FlightAware Approximate
Wed 12:30:00 PM 39.1033 -84.4186 349° North  Level Estimated

Login

Don't have an account? Register now (free) for customized features, flight alerts, and more!